»·PEaware :: UAL1879 KSAN-KIAH

UAL1879 :: KSAN-KIAH

FLIGHT INFORMATION

Flight Status: Arrived
Operator:
United Airlines
More flights by this operator :: More flights under this callsign
Pilot: Vlad D. (11271)
Aircraft: BOEING 737-300
(B733)
More flights by this aircraft type
Origin: KSAN San Diego Intl-Lindbergh
United States
Destination: KIAH G Bush Intercontinental/Houst
United States
More flights between these airports :: More routes between these airports
Route: POGGI5 IPL J2 HOGGZ KA18O WOBUG J184 EWM SJT DIESL TTORO3
File this flight plan on PilotEdge
Remarks:
Altitude:
(Current/Filed)
37,000ft
Speed:
(Current/Filed)
450kts
Departed: 11-Jun-16 10:28 AM
Arrived: 11-Jun-16 01:26 PM
Distance/Time
Traveled:
1129nm/2:58
Distance/Time
To Go:
Arrived

Flight Plot

Page will automatically refresh every two minutes.


Map Options




Map Legend


Flown Route
Filed Route
Departure Airport
Arrival Airport
Navaid (VOR, NDB)
Fix

Horizontal Profiles

Position Reports

Time Latitude Longitude Heading Altitude Ground
Speed
11-Jun-16 09:43 32.734698 -117.204205 170 17ft 0kts
11-Jun-16 09:44 32.734698 -117.204205 170 17ft 0kts
11-Jun-16 09:45 32.734698 -117.204205 170 17ft 0kts
11-Jun-16 09:46 32.734698 -117.204205 170 17ft 0kts
11-Jun-16 09:47 32.734698 -117.204205 170 17ft 0kts
11-Jun-16 09:48 32.734698 -117.204205 170 17ft 0kts
11-Jun-16 09:49 32.734698 -117.204205 170 17ft 0kts
11-Jun-16 09:50 32.734698 -117.204205 170 17ft 0kts
11-Jun-16 09:51 32.734698 -117.204205 170 17ft 0kts
11-Jun-16 09:52 32.734698 -117.204205 170 17ft 0kts
11-Jun-16 09:53 32.734698 -117.204205 170 17ft 0kts
11-Jun-16 09:54 32.734698 -117.204205 170 17ft 0kts
11-Jun-16 09:55 32.734698 -117.204205 170 17ft 0kts
11-Jun-16 09:56 32.734698 -117.204205 170 17ft 0kts
11-Jun-16 09:57 32.734698 -117.204205 170 17ft 0kts
11-Jun-16 09:58 32.734698 -117.204205 170 17ft 0kts
11-Jun-16 09:59 32.734698 -117.204205 170 17ft 0kts
11-Jun-16 10:00 32.734698 -117.204205 170 17ft 0kts
11-Jun-16 10:01 32.734698 -117.204205 170 17ft 0kts
11-Jun-16 10:02 32.734698 -117.204205 170 17ft 0kts
11-Jun-16 10:03 32.734698 -117.204205 170 17ft 0kts
11-Jun-16 10:04 32.734698 -117.204205 170 17ft 0kts
11-Jun-16 10:05 32.734698 -117.204205 170 17ft 0kts
11-Jun-16 10:06 32.734698 -117.204205 170 17ft 0kts
11-Jun-16 10:07 32.734698 -117.204205 170 17ft 0kts
11-Jun-16 10:08 32.735167 -117.204297 169 17ft 0kts
11-Jun-16 10:09 32.735660 -117.204405 145 17ft 0kts
11-Jun-16 10:10 32.735681 -117.204442 96 17ft 0kts
11-Jun-16 10:11 32.735681 -117.204442 96 17ft 0kts
11-Jun-16 10:12 32.735681 -117.204442 96 17ft 0kts
11-Jun-16 10:13 32.735866 -117.203640 91 17ft 10kts
11-Jun-16 10:14 32.734879 -117.199411 106 17ft 12kts
11-Jun-16 10:15 32.733984 -117.195735 106 19ft 8kts
11-Jun-16 10:16 32.733358 -117.193144 106 20ft 8kts
11-Jun-16 10:17 32.732530 -117.189706 106 19ft 11kts
11-Jun-16 10:18 32.731630 -117.186019 106 17ft 11kts
11-Jun-16 10:19 32.730736 -117.182327 106 17ft 13kts
11-Jun-16 10:20 32.729757 -117.178306 106 20ft 12kts
11-Jun-16 10:21 32.729507 -117.176727 75 22ft 0kts
11-Jun-16 10:22 32.729507 -117.176727 75 22ft 0kts
11-Jun-16 10:23 32.729507 -117.176727 75 22ft 0kts
11-Jun-16 10:24 32.729641 -117.176212 68 23ft 6kts
11-Jun-16 10:25 32.732278 -117.184673 284 18ft 123kts
11-Jun-16 10:26 32.744466 -117.238720 283 2092ft 196kts
11-Jun-16 10:27 32.748187 -117.307076 222 4004ft 243kts
11-Jun-16 10:28 32.696441 -117.298998 148 6303ft 262kts
11-Jun-16 10:29 32.646666 -117.221832 100 9933ft 289kts
11-Jun-16 10:30 32.633846 -117.126016 103 12814ft 310kts
11-Jun-16 10:31 32.617286 -117.016688 104 15082ft 351kts
11-Jun-16 10:32 32.615968 -116.918645 86 17432ft 371kts
11-Jun-16 10:33 32.630600 -116.773712 87 20377ft 390kts
11-Jun-16 10:34 32.639228 -116.664282 87 21899ft 414kts
11-Jun-16 10:35 32.652435 -116.525604 87 23963ft 430kts
11-Jun-16 10:36 32.666159 -116.382496 87 25852ft 445kts
11-Jun-16 10:37 32.680554 -116.235074 88 27842ft 450kts
11-Jun-16 10:38 32.694872 -116.082171 88 28751ft 476kts
11-Jun-16 10:39 32.709156 -115.927541 88 30762ft 470kts
11-Jun-16 10:40 32.723196 -115.773232 88 32316ft 471kts
11-Jun-16 10:41 32.737084 -115.618513 88 33793ft 471kts
11-Jun-16 10:42 32.749323 -115.463992 92 35125ft 467kts
11-Jun-16 10:43 32.753318 -115.310754 93 36324ft 465kts
11-Jun-16 10:44 32.757088 -115.157497 94 36945ft 472kts
11-Jun-16 10:45 32.760454 -115.001610 94 36924ft 470kts
11-Jun-16 10:46 32.763230 -114.846401 94 36930ft 471kts
11-Jun-16 10:47 32.766181 -114.690887 94 36935ft 471kts
11-Jun-16 10:48 32.767833 -114.535789 95 36936ft 470kts
11-Jun-16 10:49 32.769079 -114.396905 94 36935ft 471kts
11-Jun-16 10:50 32.770720 -114.289459 94 36934ft 470kts
11-Jun-16 10:51 32.772194 -114.181940 94 36936ft 470kts
11-Jun-16 10:52 32.773375 -114.074145 94 36936ft 470kts
11-Jun-16 10:53 32.770083 -113.964414 97 36936ft 468kts
11-Jun-16 10:54 32.767838 -113.853924 96 36936ft 469kts
11-Jun-16 10:55 32.765949 -113.742953 96 36936ft 469kts
11-Jun-16 10:56 32.764291 -113.651354 96 36954ft 469kts
11-Jun-16 10:57 32.762189 -113.540343 96 36980ft 471kts
11-Jun-16 10:58 32.760142 -113.436574 96 36995ft 471kts
11-Jun-16 10:59 32.758432 -113.352985 96 37000ft 470kts
11-Jun-16 11:00 32.756496 -113.242682 96 37009ft 469kts
11-Jun-16 11:01 32.754114 -113.133396 96 37009ft 470kts
11-Jun-16 11:02 32.751625 -113.025321 96 37009ft 469kts
11-Jun-16 11:03 32.749124 -112.920440 96 37009ft 469kts
11-Jun-16 11:04 32.748013 -112.875020 96 37009ft 469kts
11-Jun-16 11:05 32.746119 -112.799083 96 37009ft 469kts
11-Jun-16 11:06 32.743619 -112.701505 96 37009ft 469kts
11-Jun-16 11:07 32.740994 -112.602129 96 37009ft 469kts
11-Jun-16 11:08 32.738021 -112.492981 96 37012ft 469kts
11-Jun-16 11:09 32.734904 -112.382143 96 37025ft 469kts
11-Jun-16 11:10 32.732094 -112.273993 97 37036ft 469kts
11-Jun-16 11:11 32.728964 -112.164787 97 37037ft 469kts
11-Jun-16 11:12 32.725719 -112.059319 97 37036ft 469kts
11-Jun-16 11:13 32.722326 -111.951733 97 37036ft 469kts
11-Jun-16 11:14 32.718767 -111.841986 97 37036ft 469kts
11-Jun-16 11:15 32.715175 -111.734073 97 37036ft 469kts
11-Jun-16 11:16 32.711434 -111.624536 97 37036ft 469kts
11-Jun-16 11:17 32.707594 -111.514887 97 37040ft 468kts
11-Jun-16 11:18 32.703657 -111.405224 97 37049ft 469kts
11-Jun-16 11:19 32.699997 -111.300275 97 37053ft 469kts
11-Jun-16 11:20 32.694864 -111.174580 99 37055ft 467kts
11-Jun-16 11:21 32.687867 -111.031758 97 37055ft 468kts
11-Jun-16 11:22 32.682016 -110.880625 97 37055ft 468kts
11-Jun-16 11:23 32.675837 -110.726748 97 37078ft 468kts
11-Jun-16 11:24 32.669466 -110.572810 97 37101ft 467kts
11-Jun-16 11:25 32.662918 -110.419102 97 37102ft 467kts
11-Jun-16 11:26 32.659461 -110.339578 97 37104ft 467kts
11-Jun-16 11:28 32.643020 -109.967220 98 37119ft 465kts
11-Jun-16 11:29 32.635783 -109.814651 98 37119ft 465kts
11-Jun-16 11:30 32.628328 -109.661446 98 37119ft 465kts
11-Jun-16 11:31 32.620707 -109.508640 98 37119ft 465kts
11-Jun-16 11:32 32.612922 -109.356243 98 37121ft 465kts
11-Jun-16 11:33 32.605392 -109.203726 98 37134ft 465kts
11-Jun-16 11:34 32.597234 -109.051352 98 37170ft 466kts
11-Jun-16 11:35 32.588708 -108.897725 101 37200ft 465kts
11-Jun-16 11:36 32.555941 -108.752162 111 37201ft 458kts
11-Jun-16 11:37 32.521264 -108.607916 109 37206ft 453kts
11-Jun-16 11:38 32.486910 -108.465440 107 37197ft 450kts
11-Jun-16 11:39 32.452671 -108.323878 107 37226ft 450kts
11-Jun-16 11:40 32.424143 -108.205189 107 37256ft 450kts
11-Jun-16 11:41 32.383849 -108.040652 107 37218ft 442kts
11-Jun-16 11:42 32.355601 -107.925914 107 37182ft 433kts
11-Jun-16 11:43 32.321994 -107.790071 107 37166ft 430kts
11-Jun-16 11:44 32.288257 -107.654376 107 37165ft 430kts
11-Jun-16 11:45 32.255306 -107.518581 106 37164ft 430kts
11-Jun-16 11:46 32.222697 -107.381488 106 37172ft 442kts
11-Jun-16 11:47 32.189234 -107.239936 107 37177ft 455kts
11-Jun-16 11:48 32.154692 -107.096349 107 37173ft 454kts
11-Jun-16 11:49 32.120164 -106.953744 107 37174ft 454kts
11-Jun-16 11:50 32.085326 -106.810627 107 37173ft 454kts
11-Jun-16 11:51 32.050769 -106.669419 107 37154ft 453kts
11-Jun-16 11:52 32.015799 -106.527277 107 37128ft 452kts
11-Jun-16 11:53 31.980771 -106.385652 107 37129ft 452kts
11-Jun-16 11:54 31.948649 -106.243286 100 37131ft 453kts
11-Jun-16 11:55 31.934614 -106.095670 96 37127ft 454kts
11-Jun-16 11:56 31.923124 -105.947647 96 37128ft 454kts
11-Jun-16 11:57 31.911437 -105.799840 96 37128ft 454kts
11-Jun-16 11:58 31.899591 -105.652217 96 37128ft 454kts
11-Jun-16 11:59 31.887565 -105.504460 96 37127ft 454kts
11-Jun-16 12:00 31.875363 -105.356725 96 37127ft 454kts
11-Jun-16 12:01 31.863435 -105.209157 97 37105ft 455kts
11-Jun-16 12:02 31.850855 -105.061027 97 37081ft 456kts
11-Jun-16 12:03 31.838091 -104.912839 97 37082ft 456kts
11-Jun-16 12:04 31.825255 -104.765774 96 37075ft 442kts
11-Jun-16 12:05 31.812664 -104.623458 94 37083ft 444kts
11-Jun-16 12:06 31.799558 -104.477260 94 37080ft 449kts
11-Jun-16 12:07 31.786408 -104.332077 94 37083ft 448kts
11-Jun-16 12:08 31.773437 -104.186564 94 37082ft 449kts
11-Jun-16 12:09 31.759847 -104.040626 94 37075ft 449kts
11-Jun-16 12:10 31.746135 -103.895186 94 37062ft 448kts
11-Jun-16 12:11 31.732275 -103.749969 94 37054ft 448kts
11-Jun-16 12:12 31.718225 -103.604543 94 37052ft 448kts
11-Jun-16 12:13 31.704035 -103.459397 94 37060ft 448kts
11-Jun-16 12:14 31.689851 -103.314781 94 37064ft 448kts
11-Jun-16 12:15 31.675617 -103.169400 95 37064ft 448kts
11-Jun-16 12:16 31.660943 -103.024509 95 37064ft 448kts
11-Jun-16 12:17 31.646218 -102.880737 95 37073ft 448kts
11-Jun-16 12:18 31.631059 -102.734380 95 37101ft 448kts
11-Jun-16 12:19 31.615920 -102.589848 95 37109ft 448kts
11-Jun-16 12:20 31.600610 -102.445288 95 37109ft 447kts
11-Jun-16 12:21 31.585370 -102.301060 95 37104ft 447kts
11-Jun-16 12:22 31.570310 -102.159683 95 37100ft 447kts
11-Jun-16 12:23 31.554113 -102.011624 95 37100ft 447kts
11-Jun-16 12:24 31.538145 -101.867188 95 37100ft 447kts
11-Jun-16 12:25 31.522004 -101.722709 95 37100ft 448kts
11-Jun-16 12:26 31.505678 -101.578077 95 37102ft 448kts
11-Jun-16 12:27 31.489820 -101.438985 95 37112ft 451kts
11-Jun-16 12:28 31.472494 -101.286189 97 37132ft 460kts
11-Jun-16 12:29 31.455505 -101.138838 97 37132ft 456kts
11-Jun-16 12:30 31.438303 -100.992583 97 37127ft 454kts
11-Jun-16 12:31 31.420913 -100.846170 97 37128ft 454kts
11-Jun-16 12:32 31.403360 -100.699839 97 37128ft 454kts
11-Jun-16 12:33 31.385676 -100.553842 97 37128ft 454kts
11-Jun-16 12:34 31.363952 -100.408627 105 37129ft 454kts
11-Jun-16 12:35 31.329090 -100.267802 106 37127ft 454kts
11-Jun-16 12:36 31.294880 -100.130346 106 37128ft 454kts
11-Jun-16 12:37 31.261923 -99.997202 106 37126ft 455kts
11-Jun-16 12:38 31.230534 -99.869549 105 37098ft 463kts
11-Jun-16 12:39 31.193853 -99.724835 105 37093ft 466kts
11-Jun-16 12:40 31.156690 -99.579534 105 37105ft 468kts
11-Jun-16 12:41 31.119260 -99.433938 105 37108ft 468kts
11-Jun-16 12:42 31.083436 -99.294323 105 37111ft 468kts
11-Jun-16 12:43 31.055966 -99.187656 106 37110ft 468kts
11-Jun-16 12:44 31.027231 -99.077370 106 37110ft 468kts
11-Jun-16 12:45 31.001120 -98.976690 105 37109ft 468kts
11-Jun-16 12:46 30.963505 -98.831957 102 37105ft 468kts
11-Jun-16 12:47 30.941879 -98.682837 97 37110ft 467kts
11-Jun-16 12:48 30.921035 -98.533363 98 37116ft 471kts
11-Jun-16 12:49 30.899752 -98.382363 100 37126ft 474kts
11-Jun-16 12:50 30.878947 -98.233061 101 37094ft 469kts
11-Jun-16 12:51 30.857698 -98.084740 101 36963ft 465kts
11-Jun-16 12:52 30.836352 -97.937096 101 36849ft 466kts
11-Jun-16 12:53 30.814181 -97.788341 101 34416ft 480kts
11-Jun-16 12:54 30.792266 -97.640081 101 31192ft 469kts
11-Jun-16 12:55 30.770373 -97.493317 101 28261ft 456kts
11-Jun-16 12:56 30.749169 -97.352272 102 25720ft 437kts
11-Jun-16 12:57 30.729406 -97.219213 102 24120ft 414kts
11-Jun-16 12:58 30.708941 -97.084989 102 24107ft 424kts
11-Jun-16 12:59 30.688108 -96.950539 102 24108ft 424kts
11-Jun-16 13:00 30.667310 -96.816307 102 24103ft 424kts
11-Jun-16 13:01 30.646099 -96.681834 103 24099ft 423kts
11-Jun-16 13:02 30.624013 -96.547718 102 23232ft 419kts
11-Jun-16 13:03 30.601577 -96.418956 116 21274ft 401kts
11-Jun-16 13:04 30.539826 -96.319420 129 18760ft 371kts
11-Jun-16 13:05 30.481691 -96.227550 129 16649ft 343kts
11-Jun-16 13:06 30.427474 -96.142095 129 14649ft 321kts
11-Jun-16 13:07 30.376197 -96.061443 129 13072ft 302kts
11-Jun-16 13:08 30.303234 -96.013261 163 9772ft 353kts
11-Jun-16 13:09 30.217454 -95.981303 163 8584ft 298kts
11-Jun-16 13:10 30.147428 -95.951049 133 7898ft 247kts
11-Jun-16 13:11 30.144302 -95.872631 86 6349ft 254kts
11-Jun-16 13:12 30.151026 -95.792507 85 4916ft 249kts
11-Jun-16 13:13 30.157682 -95.715484 85 3703ft 235kts
11-Jun-16 13:14 30.163923 -95.643192 84 3008ft 211kts
11-Jun-16 13:15 30.169617 -95.577000 84 3025ft 204kts
11-Jun-16 13:16 30.175032 -95.513636 83 3005ft 197kts
11-Jun-16 13:17 30.156101 -95.464067 143 3088ft 170kts
11-Jun-16 13:18 30.114332 -95.438049 155 2973ft 157kts
11-Jun-16 13:19 30.076833 -95.416009 152 2097ft 148kts
11-Jun-16 13:20 30.040763 -95.393871 152 1303ft 147kts
11-Jun-16 13:21 30.006801 -95.372919 153 581ft 138kts
11-Jun-16 13:22 29.975253 -95.353739 152 90ft 88kts
11-Jun-16 13:23 29.968950 -95.348987 122 89ft 0kts
11-Jun-16 13:24 29.967399 -95.346762 148 89ft 16kts
11-Jun-16 13:25 29.968585 -95.342730 354 89ft 15kts
11-Jun-16 13:26 29.972221 -95.344815 331 89ft 14kts
11-Jun-16 13:27 29.975415 -95.346795 331 89ft 12kts
11-Jun-16 13:28 29.978470 -95.348671 332 92ft 14kts
11-Jun-16 13:29 29.982986 -95.351274 23 95ft 13kts
11-Jun-16 13:30 29.983463 -95.348283 23 96ft 6kts
11-Jun-16 13:31 29.983834 -95.348231 1 96ft 0kts
11-Jun-16 13:32 29.983834 -95.348231 1 96ft 0kts
11-Jun-16 13:33 29.983834 -95.348231 1 96ft 0kts
11-Jun-16 13:34 29.983834 -95.348231 1 96ft 0kts
11-Jun-16 13:35 29.983834 -95.348231 1 96ft 0kts
11-Jun-16 13:36 29.983834 -95.348231 1 96ft 0kts
11-Jun-16 13:37 29.983834 -95.348231 1 96ft 0kts

Navigation Log

Ident Type
Flight plan parsing failed, navigation log unavailable